createdAt,value
2023-04-09T00:01:56.753Z,96.21
2023-04-09T00:04:25.395Z,96.14
2023-04-09T00:06:54.000Z,96.30
2023-04-09T00:09:22.515Z,96.71
2023-04-09T00:11:50.907Z,96.84
2023-04-09T00:14:19.550Z,96.92
2023-04-09T00:16:47.993Z,97.21
2023-04-09T00:19:16.626Z,97.46
2023-04-09T00:21:46.126Z,97.48
2023-04-09T00:24:14.728Z,97.57
2023-04-09T00:26:43.278Z,98.00
2023-04-09T00:29:11.694Z,98.17
2023-04-09T00:31:40.440Z,98.30
2023-04-09T00:34:08.918Z,98.35
2023-04-09T00:36:38.954Z,98.13
2023-04-09T00:39:07.349Z,98.13
2023-04-09T00:41:36.200Z,98.01
2023-04-09T00:44:04.643Z,97.86
2023-04-09T00:46:33.149Z,97.66
2023-04-09T00:49:01.684Z,97.64
2023-04-09T00:51:30.836Z,97.44
2023-04-09T00:53:59.448Z,97.56
2023-04-09T00:56:28.536Z,97.55
2023-04-09T00:58:56.993Z,97.38
2023-04-09T01:01:25.521Z,97.53
2023-04-09T01:03:54.733Z,97.38
2023-04-09T01:06:31.571Z,97.20
2023-04-09T01:09:05.996Z,97.04
2023-04-09T01:11:43.158Z,97.20
2023-04-09T01:14:23.578Z,97.08
2023-04-09T01:16:57.189Z,97.13
2023-04-09T01:19:39.167Z,97.16
2023-04-09T01:22:17.136Z,97.08
2023-04-09T01:25:04.383Z,97.04
2023-04-09T01:27:55.283Z,96.75
2023-04-09T01:30:25.266Z,96.77
2023-04-09T01:32:57.037Z,96.61
2023-04-09T01:35:28.354Z,96.69
2023-04-09T01:37:58.151Z,96.71
2023-04-09T01:40:26.811Z,96.79
2023-04-09T01:42:56.294Z,96.81
2023-04-09T01:45:25.820Z,96.53
2023-04-09T01:47:55.899Z,96.67
2023-04-09T01:50:24.456Z,96.67
2023-04-09T01:52:53.214Z,96.67
2023-04-09T01:55:21.832Z,96.54
2023-04-09T01:57:50.789Z,96.54
2023-04-09T02:00:19.799Z,96.49
2023-04-09T02:02:56.782Z,96.11
2023-04-09T02:05:29.072Z,96.02
2023-04-09T02:07:58.321Z,95.94
2023-04-09T02:10:30.782Z,95.76
2023-04-09T02:13:01.362Z,95.97
2023-04-09T02:15:34.279Z,96.38
2023-04-09T02:18:02.893Z,96.20
2023-04-09T02:20:31.374Z,96.18
2023-04-09T02:22:59.775Z,96.53
2023-04-09T02:25:28.393Z,96.64
2023-04-09T02:27:56.848Z,96.72
2023-04-09T02:30:25.784Z,96.42
2023-04-09T02:32:54.332Z,96.20
2023-04-09T02:35:23.061Z,96.37
2023-04-09T02:37:51.521Z,96.40
2023-04-09T02:40:20.465Z,96.51
2023-04-09T02:42:48.916Z,96.35
2023-04-09T02:45:17.733Z,96.50
2023-04-09T02:47:46.526Z,96.19
2023-04-09T02:50:15.233Z,95.87
2023-04-09T02:52:48.248Z,96.00
2023-04-09T02:55:20.025Z,96.15
2023-04-09T02:57:48.544Z,96.42
2023-04-09T03:00:17.132Z,96.58
2023-04-09T03:02:45.671Z,96.65
2023-04-09T03:05:14.133Z,96.59
2023-04-09T03:07:42.850Z,96.21
2023-04-09T03:10:11.809Z,95.75
2023-04-09T03:12:40.456Z,95.67
2023-04-09T03:15:10.309Z,95.95
2023-04-09T03:17:39.343Z,96.10
2023-04-09T03:20:09.155Z,96.28
2023-04-09T03:22:39.621Z,96.14
2023-04-09T03:25:22.587Z,95.98
2023-04-09T03:27:53.642Z,96.20
2023-04-09T03:30:29.767Z,96.11
2023-04-09T03:32:58.907Z,96.30
2023-04-09T03:35:27.830Z,96.23
2023-04-09T03:37:59.257Z,96.21
2023-04-09T03:40:27.944Z,96.28
2023-04-09T03:42:56.314Z,95.97
2023-04-09T03:45:24.942Z,96.02
2023-04-09T03:47:55.680Z,96.25
2023-04-09T03:50:26.597Z,96.12
2023-04-09T03:52:56.847Z,96.27
2023-04-09T03:55:25.619Z,96.10
2023-04-09T03:57:54.319Z,96.13
2023-04-09T04:00:23.404Z,95.93
2023-04-09T04:02:52.630Z,95.94
2023-04-09T04:05:33.088Z,96.12
2023-04-09T04:08:03.862Z,96.13
2023-04-09T04:10:34.361Z,95.90
2023-04-09T04:13:03.076Z,95.99
2023-04-09T04:15:40.956Z,95.83
2023-04-09T04:18:09.650Z,95.60
2023-04-09T04:20:50.455Z,95.79
2023-04-09T04:23:19.316Z,95.78
2023-04-09T04:26:13.889Z,95.85
2023-04-09T04:28:42.421Z,95.64
2023-04-09T04:31:14.302Z,95.55
2023-04-09T04:33:43.427Z,95.39
2023-04-09T04:36:15.291Z,95.54
2023-04-09T04:38:47.334Z,96.10
2023-04-09T04:41:20.190Z,96.04
2023-04-09T04:43:54.301Z,96.21
2023-04-09T04:46:25.361Z,96.48
2023-04-09T04:48:54.126Z,96.47
2023-04-09T04:51:23.730Z,96.44
2023-04-09T04:54:02.180Z,96.30
2023-04-09T04:56:30.970Z,96.49
2023-04-09T04:59:10.752Z,96.47
2023-04-09T05:01:48.755Z,96.45
2023-04-09T05:04:17.547Z,96.36
2023-04-09T05:06:45.939Z,96.12
2023-04-09T05:09:19.506Z,95.89
2023-04-09T05:11:59.191Z,96.03
2023-04-09T05:14:27.854Z,95.84
2023-04-09T05:16:56.463Z,95.63
2023-04-09T05:19:28.501Z,95.55
2023-04-09T05:22:00.686Z,95.36
2023-04-09T05:24:29.351Z,95.29
2023-04-09T05:27:01.396Z,95.30
2023-04-09T05:29:33.155Z,95.33
2023-04-09T05:32:01.862Z,95.28
2023-04-09T05:34:37.803Z,95.40
2023-04-09T05:37:10.480Z,95.58
2023-04-09T05:39:50.287Z,95.65
2023-04-09T05:42:20.147Z,95.69
2023-04-09T05:45:09.189Z,95.53
2023-04-09T05:47:39.422Z,95.69
2023-04-09T05:50:16.402Z,95.48
2023-04-09T05:52:44.989Z,95.75
2023-04-09T05:55:15.238Z,95.93
2023-04-09T05:57:52.624Z,96.10
2023-04-09T06:00:22.307Z,95.96
2023-04-09T06:02:51.106Z,95.79
2023-04-09T06:05:19.707Z,95.80
2023-04-09T06:07:50.475Z,95.99
2023-04-09T06:10:19.634Z,95.98
2023-04-09T06:12:50.364Z,96.21
2023-04-09T06:15:19.235Z,96.38
2023-04-09T06:17:49.417Z,96.32
2023-04-09T06:20:18.209Z,96.40
2023-04-09T06:22:47.057Z,96.34
2023-04-09T06:25:15.520Z,95.96
2023-04-09T06:27:44.860Z,96.28
2023-04-09T06:30:13.835Z,96.30
2023-04-09T06:32:53.140Z,96.35
2023-04-09T06:35:23.742Z,96.08
2023-04-09T06:37:52.627Z,96.24
2023-04-09T06:40:23.233Z,96.37
2023-04-09T06:42:52.212Z,96.10
2023-04-09T06:45:30.610Z,95.82
2023-04-09T06:48:00.032Z,95.77
2023-04-09T06:50:28.657Z,96.00
2023-04-09T06:52:57.721Z,96.03
2023-04-09T06:55:26.675Z,95.99
2023-04-09T06:57:55.134Z,95.92
2023-04-09T07:00:23.756Z,96.12
2023-04-09T07:02:53.093Z,96.06
2023-04-09T07:05:21.971Z,96.08
2023-04-09T07:07:50.567Z,96.18
2023-04-09T07:10:19.189Z,96.13
2023-04-09T07:12:47.640Z,95.95
2023-04-09T07:15:16.113Z,95.82
2023-04-09T07:17:46.111Z,95.51
2023-04-09T07:20:15.340Z,95.30
2023-04-09T07:22:44.378Z,95.32
2023-04-09T07:25:12.892Z,95.02
2023-04-09T07:27:41.920Z,93.73
2023-04-09T07:30:11.492Z,93.73
2023-04-09T07:32:40.208Z,94.02
2023-04-09T07:35:10.731Z,92.71
2023-04-09T07:37:39.288Z,93.26
2023-04-09T07:40:09.771Z,92.16
2023-04-09T07:42:39.439Z,91.55
2023-04-09T07:45:09.534Z,91.90
2023-04-09T07:47:39.161Z,91.61
2023-04-09T07:50:10.154Z,92.38
2023-04-09T07:52:39.163Z,92.26
2023-04-09T07:55:08.470Z,91.85
2023-04-09T07:57:36.981Z,91.41
2023-04-09T08:00:07.807Z,91.25
2023-04-09T08:02:42.523Z,90.66
2023-04-09T08:05:11.444Z,90.54
2023-04-09T08:07:40.173Z,90.68
2023-04-09T08:10:19.795Z,90.69
2023-04-09T08:12:51.647Z,91.22
2023-04-09T08:15:23.388Z,91.02
2023-04-09T08:17:51.838Z,90.83
2023-04-09T08:20:20.625Z,90.51
2023-04-09T08:22:49.052Z,89.62
2023-04-09T08:25:18.937Z,89.57
2023-04-09T08:27:47.438Z,89.79
2023-04-09T08:30:20.535Z,89.99
2023-04-09T08:32:49.427Z,90.03
2023-04-09T08:35:20.082Z,89.65
2023-04-09T08:37:48.928Z,88.82
2023-04-09T08:40:24.080Z,88.30
2023-04-09T08:42:57.134Z,86.65
2023-04-09T08:45:28.948Z,86.40
2023-04-09T08:47:59.187Z,84.74
2023-04-09T08:50:35.776Z,85.06
2023-04-09T08:53:06.652Z,85.74
2023-04-09T08:55:37.527Z,86.11
2023-04-09T08:58:10.106Z,86.96
2023-04-09T09:00:42.122Z,86.48
2023-04-09T09:03:14.542Z,84.87
2023-04-09T09:05:44.836Z,84.29
2023-04-09T09:08:23.370Z,85.10
2023-04-09T09:10:54.565Z,85.31
2023-04-09T09:13:29.625Z,85.76
2023-04-09T09:16:20.529Z,85.84
2023-04-09T09:18:48.998Z,85.75
2023-04-09T09:21:27.993Z,85.33
2023-04-09T09:24:01.216Z,85.49
2023-04-09T09:26:32.177Z,85.24
2023-04-09T09:29:05.003Z,85.36
2023-04-09T09:31:48.500Z,85.40
2023-04-09T09:34:17.780Z,85.25
2023-04-09T09:36:47.503Z,84.83
2023-04-09T09:39:17.142Z,84.65
2023-04-09T09:42:06.852Z,84.94
2023-04-09T09:44:35.582Z,85.27
2023-04-09T09:47:05.452Z,84.89
2023-04-09T09:49:34.704Z,84.71
2023-04-09T09:52:11.901Z,85.33
2023-04-09T09:54:42.481Z,85.83
2023-04-09T09:57:14.918Z,85.89
2023-04-09T10:00:00.578Z,85.68
2023-04-09T10:02:40.590Z,86.10
2023-04-09T10:05:11.053Z,86.70
2023-04-09T10:07:40.406Z,86.59
2023-04-09T10:10:22.892Z,87.26
2023-04-09T10:12:52.680Z,87.63
2023-04-09T10:15:22.851Z,88.11
2023-04-09T10:17:52.930Z,88.47
2023-04-09T10:20:28.185Z,88.48
2023-04-09T10:22:57.904Z,88.70
2023-04-09T10:25:27.887Z,89.05
2023-04-09T10:28:14.414Z,89.30
2023-04-09T10:30:43.182Z,89.36
2023-04-09T10:33:13.218Z,89.42
2023-04-09T10:35:45.899Z,89.34
2023-04-09T10:38:25.104Z,89.49
2023-04-09T10:40:54.132Z,89.31
2023-04-09T10:43:37.774Z,89.25
2023-04-09T10:46:28.262Z,89.29
2023-04-09T10:49:17.702Z,89.25
2023-04-09T10:51:52.677Z,89.62
2023-04-09T10:54:47.951Z,89.39
2023-04-09T10:57:23.861Z,89.30
2023-04-09T10:59:54.643Z,89.32
2023-04-09T11:02:49.686Z,89.22
2023-04-09T11:05:25.815Z,89.08
2023-04-09T11:08:02.066Z,89.24
2023-04-09T11:10:31.508Z,88.88
2023-04-09T11:13:00.402Z,89.11
2023-04-09T11:15:29.328Z,88.99
2023-04-09T11:17:58.052Z,88.98
2023-04-09T11:20:30.457Z,88.86
2023-04-09T11:23:00.772Z,88.84
2023-04-09T11:25:32.609Z,88.86
2023-04-09T11:28:03.656Z,88.90
2023-04-09T11:30:33.709Z,89.02
2023-04-09T11:33:03.093Z,88.94
2023-04-09T11:35:36.649Z,88.85
2023-04-09T11:38:08.727Z,88.86
2023-04-09T11:40:42.919Z,88.91
2023-04-09T11:43:15.900Z,88.87
2023-04-09T11:45:46.766Z,88.62
2023-04-09T11:48:17.456Z,88.58
2023-04-09T11:50:46.745Z,88.52
2023-04-09T11:53:23.171Z,88.28
2023-04-09T11:55:55.631Z,88.33
2023-04-09T11:58:25.174Z,88.13
2023-04-09T12:01:01.017Z,88.18
2023-04-09T12:03:32.111Z,88.39
2023-04-09T12:06:02.318Z,88.27
2023-04-09T12:08:31.340Z,88.03
2023-04-09T12:11:08.872Z,87.89
2023-04-09T12:13:42.175Z,87.80
2023-04-09T12:16:10.797Z,87.64
2023-04-09T12:18:40.152Z,87.74
2023-04-09T12:21:08.767Z,87.70
2023-04-09T12:23:37.308Z,87.84
2023-04-09T12:26:06.070Z,87.76
2023-04-09T12:28:35.182Z,87.62
2023-04-09T12:31:03.656Z,87.86
2023-04-09T12:33:32.306Z,87.85
2023-04-09T12:36:00.921Z,87.37
2023-04-09T12:38:29.789Z,86.88
2023-04-09T12:40:58.707Z,87.19
2023-04-09T12:43:27.132Z,87.21
2023-04-09T12:45:55.572Z,87.11
2023-04-09T12:48:24.272Z,86.88
2023-04-09T12:50:53.082Z,86.69
2023-04-09T12:53:21.483Z,86.22
2023-04-09T12:55:50.739Z,86.25
2023-04-09T12:58:19.291Z,86.28
2023-04-09T13:00:47.723Z,86.11
2023-04-09T13:03:16.596Z,85.74
2023-04-09T13:05:45.634Z,85.50
2023-04-09T13:08:14.113Z,85.34
2023-04-09T13:10:42.758Z,85.23
2023-04-09T13:13:12.023Z,85.07
2023-04-09T13:15:42.813Z,85.07
2023-04-09T13:18:12.162Z,85.10
2023-04-09T13:20:40.791Z,85.06
2023-04-09T13:23:09.311Z,85.58
2023-04-09T13:25:40.393Z,85.51
2023-04-09T13:28:09.234Z,85.37
2023-04-09T13:30:41.130Z,85.16
2023-04-09T13:33:08.901Z,84.83
2023-04-09T13:35:37.361Z,84.54
2023-04-09T13:38:06.435Z,84.71
2023-04-09T13:40:35.112Z,84.42
2023-04-09T13:43:03.500Z,84.17
2023-04-09T13:45:35.604Z,84.25
2023-04-09T13:48:06.466Z,83.89
2023-04-09T13:50:37.372Z,83.92
2023-04-09T13:53:06.477Z,83.67
2023-04-09T13:55:34.972Z,83.05
2023-04-09T13:58:03.729Z,82.50
2023-04-09T14:00:32.385Z,82.46
2023-04-09T14:03:02.411Z,82.54
2023-04-09T14:05:32.451Z,82.21
2023-04-09T14:08:01.105Z,82.52
2023-04-09T14:10:30.280Z,82.75
2023-04-09T14:12:58.701Z,82.63
2023-04-09T14:15:27.418Z,82.33
2023-04-09T14:20:21.199Z,82.52
2023-04-09T14:22:56.191Z,82.16
2023-04-09T14:25:28.216Z,82.09
2023-04-09T14:27:59.067Z,82.24
2023-04-09T14:30:34.302Z,81.89
2023-04-09T14:33:07.024Z,82.55
2023-04-09T14:35:39.498Z,82.81
2023-04-09T14:38:11.937Z,82.83
2023-04-09T14:40:44.864Z,82.68
2023-04-09T14:43:16.825Z,82.99
2023-04-09T14:45:48.898Z,82.95
2023-04-09T14:48:20.954Z,82.94
2023-04-09T14:50:51.819Z,83.19
2023-04-09T14:53:23.567Z,83.23
2023-04-09T14:55:55.310Z,83.81
2023-04-09T14:58:27.581Z,83.79
2023-04-09T15:00:59.652Z,83.98
2023-04-09T15:03:32.015Z,84.13
2023-04-09T15:06:03.913Z,83.77
2023-04-09T15:08:38.280Z,83.74
2023-04-09T15:11:15.460Z,83.52
2023-04-09T15:13:48.044Z,83.44
2023-04-09T15:16:26.590Z,83.39
2023-04-09T15:19:00.069Z,82.99
2023-04-09T15:21:32.710Z,82.49
2023-04-09T15:24:04.571Z,82.91
2023-04-09T15:26:37.218Z,82.81
2023-04-09T15:29:11.116Z,82.63
2023-04-09T15:31:43.969Z,82.78
2023-04-09T15:34:18.512Z,82.89
2023-04-09T15:36:50.594Z,83.12
2023-04-09T15:39:21.315Z,83.09
2023-04-09T15:41:53.143Z,83.44
2023-04-09T15:44:25.196Z,83.69
2023-04-09T15:46:55.883Z,83.68
2023-04-09T15:49:29.005Z,83.96
2023-04-09T15:52:03.182Z,84.08
2023-04-09T15:54:35.201Z,84.44
2023-04-09T15:57:07.068Z,84.37
2023-04-09T15:59:38.975Z,84.48
2023-04-09T16:02:13.236Z,84.56
2023-04-09T16:04:45.359Z,84.89
2023-04-09T16:07:21.140Z,85.02
2023-04-09T16:09:52.793Z,85.12
2023-04-09T16:12:24.946Z,85.07
2023-04-09T16:14:56.874Z,85.47
2023-04-09T16:17:28.915Z,85.72
2023-04-09T16:20:01.626Z,85.78
2023-04-09T16:22:34.420Z,85.78
2023-04-09T16:25:06.810Z,85.96
2023-04-09T16:27:38.522Z,85.96
2023-04-09T16:30:13.863Z,86.10
2023-04-09T16:32:47.586Z,86.38
2023-04-09T16:35:20.919Z,86.47
2023-04-09T16:37:52.932Z,86.69
2023-04-09T16:40:24.483Z,86.80
2023-04-09T16:42:56.352Z,86.95
2023-04-09T16:45:28.239Z,86.81
2023-04-09T16:48:00.826Z,86.58
2023-04-09T16:50:35.033Z,86.76
2023-04-09T16:53:07.038Z,86.86
2023-04-09T16:55:37.472Z,86.95
2023-04-09T16:58:09.227Z,86.91
2023-04-09T17:00:41.060Z,86.90
2023-04-09T17:03:13.151Z,87.12
2023-04-09T17:05:49.298Z,86.83
2023-04-09T17:08:24.803Z,87.01
2023-04-09T17:11:02.142Z,87.14
2023-04-09T17:13:36.537Z,87.09
2023-04-09T17:16:11.415Z,87.22
2023-04-09T17:18:45.670Z,87.23
2023-04-09T17:21:20.804Z,87.22
2023-04-09T17:23:55.154Z,87.00
2023-04-09T17:26:27.097Z,87.10
2023-04-09T17:28:59.143Z,87.10
2023-04-09T17:31:33.086Z,86.97
2023-04-09T17:34:09.612Z,87.01
2023-04-09T17:36:42.850Z,87.06
2023-04-09T17:39:15.096Z,87.01
2023-04-09T17:41:47.398Z,87.04
2023-04-09T17:44:21.210Z,87.45
2023-04-09T17:46:53.817Z,87.59
2023-04-09T17:49:27.136Z,87.91
2023-04-09T17:52:00.216Z,87.83
2023-04-09T17:54:37.149Z,87.82
2023-04-09T17:57:16.240Z,87.97
2023-04-09T17:59:49.153Z,88.20
2023-04-09T18:02:21.967Z,88.10
2023-04-09T18:04:54.958Z,88.22
2023-04-09T18:07:33.450Z,88.54
2023-04-09T18:10:07.160Z,88.57
2023-04-09T18:12:38.889Z,88.48
2023-04-09T18:15:12.313Z,88.73
2023-04-09T18:17:44.483Z,88.85
2023-04-09T18:20:16.827Z,88.79
2023-04-09T18:22:49.195Z,88.63
2023-04-09T18:25:23.186Z,88.69
2023-04-09T18:27:58.331Z,88.79
2023-04-09T18:30:34.199Z,88.66
2023-04-09T18:33:10.591Z,88.71
2023-04-09T18:35:55.766Z,88.66
2023-04-09T18:38:37.027Z,89.02
2023-04-09T18:41:14.191Z,89.19
2023-04-09T18:43:52.513Z,89.21
2023-04-09T18:46:27.458Z,89.29
2023-04-09T18:49:03.945Z,89.53
2023-04-09T18:51:45.375Z,89.33
2023-04-09T18:54:28.395Z,89.14
2023-04-09T18:57:10.361Z,89.27
2023-04-09T18:59:41.374Z,89.06
2023-04-09T19:02:20.389Z,89.41
2023-04-09T19:04:53.106Z,89.43
2023-04-09T19:07:44.728Z,89.70
2023-04-09T19:10:21.847Z,89.59
2023-04-09T19:12:57.320Z,89.76
2023-04-09T19:15:38.797Z,89.63
2023-04-09T19:18:11.183Z,89.77
2023-04-09T19:20:58.051Z,89.78
2023-04-09T19:23:43.536Z,90.05
2023-04-09T19:26:15.835Z,90.02
2023-04-09T19:28:46.901Z,90.05
2023-04-09T19:31:19.935Z,90.01
2023-04-09T19:33:54.284Z,89.88
2023-04-09T19:36:26.881Z,89.88
2023-04-09T19:38:59.688Z,90.01
2023-04-09T19:41:31.510Z,89.97
2023-04-09T19:44:02.307Z,90.07
2023-04-09T19:46:34.681Z,90.08
2023-04-09T19:49:07.954Z,90.30
2023-04-09T19:51:39.707Z,90.39
2023-04-09T19:54:11.748Z,90.71
2023-04-09T19:56:42.540Z,90.64
2023-04-09T19:59:19.795Z,90.90
2023-04-09T20:01:54.953Z,90.94
2023-04-09T20:04:32.266Z,90.86
2023-04-09T20:07:05.218Z,90.67
2023-04-09T20:09:52.952Z,90.66
2023-04-09T20:12:33.431Z,90.76
2023-04-09T20:15:12.283Z,90.95
2023-04-09T20:17:53.606Z,90.95
2023-04-09T20:20:25.511Z,90.99
2023-04-09T20:22:57.654Z,91.09
2023-04-09T20:25:36.402Z,91.10
2023-04-09T20:28:09.844Z,91.11
2023-04-09T20:30:41.547Z,91.45
2023-04-09T20:33:13.274Z,91.76
2023-04-09T20:35:45.003Z,91.91
2023-04-09T20:38:20.519Z,92.00
2023-04-09T20:40:52.763Z,91.94
2023-04-09T20:43:24.593Z,92.01
2023-04-09T20:45:56.413Z,91.96
2023-04-09T20:48:31.366Z,92.06
2023-04-09T20:51:03.843Z,92.14
2023-04-09T20:53:35.606Z,92.32
2023-04-09T20:56:09.168Z,92.39
2023-04-09T20:58:41.107Z,92.27
2023-04-09T21:01:13.128Z,92.16
2023-04-09T21:03:43.493Z,92.42
2023-04-09T21:06:17.473Z,92.34
2023-04-09T21:08:49.675Z,92.13
2023-04-09T21:11:19.974Z,92.20
2023-04-09T21:13:55.067Z,91.90
2023-04-09T21:16:29.810Z,92.06
2023-04-09T21:19:06.899Z,92.25
2023-04-09T21:21:39.688Z,92.33
2023-04-09T21:24:11.442Z,92.38
2023-04-09T21:26:49.975Z,92.35
2023-04-09T21:29:23.297Z,92.29
2023-04-09T21:31:55.195Z,92.17
2023-04-09T21:34:27.232Z,92.16
2023-04-09T21:36:59.214Z,92.13
2023-04-09T21:39:31.320Z,92.13
2023-04-09T21:42:03.295Z,92.20
2023-04-09T21:44:36.306Z,92.25
2023-04-09T21:47:09.074Z,92.23
2023-04-09T21:49:40.932Z,92.20
2023-04-09T21:52:15.163Z,92.12
2023-04-09T21:54:46.895Z,91.79
2023-04-09T21:57:19.003Z,91.62
2023-04-09T21:59:50.850Z,91.79
2023-04-09T22:02:22.737Z,92.00
2023-04-09T22:04:53.074Z,92.15
2023-04-09T22:07:25.849Z,91.97
2023-04-09T22:09:58.197Z,92.31
2023-04-09T22:12:29.899Z,92.59
2023-04-09T22:15:01.590Z,92.70
2023-04-09T22:17:33.430Z,93.10
2023-04-09T22:20:05.389Z,93.29
2023-04-09T22:22:37.760Z,93.06
2023-04-09T22:25:11.924Z,93.42
2023-04-09T22:27:44.132Z,93.58
2023-04-09T22:30:14.973Z,93.59
2023-04-09T22:32:46.932Z,93.72
2023-04-09T22:35:19.028Z,93.68
2023-04-09T22:37:49.427Z,93.56
2023-04-09T22:40:21.280Z,93.68
2023-04-09T22:42:52.951Z,93.51
2023-04-09T22:45:27.796Z,93.30
2023-04-09T22:47:59.683Z,93.14
2023-04-09T22:50:31.887Z,93.36
2023-04-09T22:53:04.124Z,93.26
2023-04-09T22:55:36.532Z,93.09
2023-04-09T22:58:08.190Z,93.37
2023-04-09T23:00:39.876Z,93.10
2023-04-09T23:03:11.925Z,93.18
2023-04-09T23:05:43.881Z,93.34
2023-04-09T23:08:14.352Z,93.29
2023-04-09T23:10:46.051Z,93.20
2023-04-09T23:13:18.230Z,93.13
2023-04-09T23:15:49.971Z,93.19
2023-04-09T23:18:22.986Z,92.71
2023-04-09T23:20:54.652Z,92.77
2023-04-09T23:23:26.491Z,92.51
2023-04-09T23:25:58.129Z,92.50
2023-04-09T23:28:30.508Z,92.55
2023-04-09T23:31:02.198Z,92.51
2023-04-09T23:33:34.475Z,92.75
2023-04-09T23:36:04.885Z,92.97
2023-04-09T23:38:36.716Z,93.17
2023-04-09T23:41:08.799Z,93.17
2023-04-09T23:43:40.666Z,93.29
2023-04-09T23:46:12.312Z,93.12
2023-04-09T23:48:44.028Z,93.07
2023-04-09T23:51:20.958Z,93.14
2023-04-09T23:53:53.008Z,93.52
2023-04-09T23:56:25.107Z,93.42
2023-04-09T23:58:56.878Z,93.41
